Dahlgren, Virginia
Current Conditions -  °F | °C
As of 10:56 PM on Wednesday 22 Oct 2014 (Local Time) from KNYG Reporting Station
Overcast Overcast  
Wind Chill: 54°   Ceiling: 4200
Heat Index: 54°   Visibility: 10mi
Dew Point: 43°   Wind: 22mph
Humidity: 66%   Direction: 330°NNW
Pressure: 29.96"   Gusts: 28mph
Location:  38.33°N, 77.05°W
Report Text: KNYG 230256Z AUTO 33019G24KT 10SM OVC042 12/06 A2996 RMK AO2 PK WND 34036/0212 SLP147 T01220061 50004 $
Loading
Personal Weather Stations






























Interactive Weather Map New forecast layout! Learn more

10-Day Weather Forecast

Advertisements
Track Severe Weather on mobile